sensor_id;sensor_type;location;lat;lon;timestamp;temperature;humidity
22680;DHT22;11507;44.858;10.374;2024-01-10T00:00:28;1.80;99.90
22680;DHT22;11507;44.858;10.374;2024-01-10T00:02:55;1.80;99.90
22680;DHT22;11507;44.858;10.374;2024-01-10T00:05:21;1.80;99.90
22680;DHT22;11507;44.858;10.374;2024-01-10T00:07:47;1.80;99.90
22680;DHT22;11507;44.858;10.374;2024-01-10T00:10:13;1.70;99.90
22680;DHT22;11507;44.858;10.374;2024-01-10T00:12:39;1.70;99.90
22680;DHT22;11507;44.858;10.374;2024-01-10T00:15:06;1.70;99.90
22680;DHT22;11507;44.858;10.374;2024-01-10T00:17:32;1.70;99.90
22680;DHT22;11507;44.858;10.374;2024-01-10T00:19:58;1.60;99.90
22680;DHT22;11507;44.858;10.374;2024-01-10T00:22:24;1.60;99.90
22680;DHT22;11507;44.858;10.374;2024-01-10T00:24:51;1.50;99.90
22680;DHT22;11507;44.858;10.374;2024-01-10T00:27:17;1.50;99.90
22680;DHT22;11507;44.858;10.374;2024-01-10T00:29:43;1.40;99.90
22680;DHT22;11507;44.858;10.374;2024-01-10T00:32:09;1.30;99.90
22680;DHT22;11507;44.858;10.374;2024-01-10T00:34:38;1.30;99.90
22680;DHT22;11507;44.858;10.374;2024-01-10T00:37:05;1.20;99.90
22680;DHT22;11507;44.858;10.374;2024-01-10T00:39:31;1.10;99.90
22680;DHT22;11507;44.858;10.374;2024-01-10T00:41:57;1.10;99.90
22680;DHT22;11507;44.858;10.374;2024-01-10T00:44:23;1.10;99.90
22680;DHT22;11507;44.858;10.374;2024-01-10T00:46:49;1.10;99.90
22680;DHT22;11507;44.858;10.374;2024-01-10T00:49:15;1.00;99.90
22680;DHT22;11507;44.858;10.374;2024-01-10T00:51:41;0.90;99.90
22680;DHT22;11507;44.858;10.374;2024-01-10T00:54:08;0.90;99.90
22680;DHT22;11507;44.858;10.374;2024-01-10T00:56:34;0.80;99.90
22680;DHT22;11507;44.858;10.374;2024-01-10T00:59:00;0.80;99.90
22680;DHT22;11507;44.858;10.374;2024-01-10T01:01:26;0.70;99.90
22680;DHT22;11507;44.858;10.374;2024-01-10T01:03:52;0.60;99.90
22680;DHT22;11507;44.858;10.374;2024-01-10T01:06:18;0.60;99.90
22680;DHT22;11507;44.858;10.374;2024-01-10T01:08:44;0.50;99.90
22680;DHT22;11507;44.858;10.374;2024-01-10T01:11:10;0.50;99.90
22680;DHT22;11507;44.858;10.374;2024-01-10T01:13:37;0.50;99.90
22680;DHT22;11507;44.858;10.374;2024-01-10T01:16:04;0.50;99.90
22680;DHT22;11507;44.858;10.374;2024-01-10T01:18:30;0.40;99.90
22680;DHT22;11507;44.858;10.374;2024-01-10T01:20:56;0.40;99.90
22680;DHT22;11507;44.858;10.374;2024-01-10T01:23:23;0.40;99.90
22680;DHT22;11507;44.858;10.374;2024-01-10T01:25:49;0.40;99.90
22680;DHT22;11507;44.858;10.374;2024-01-10T01:28:16;0.40;99.90
22680;DHT22;11507;44.858;10.374;2024-01-10T01:30:42;0.40;99.90
22680;DHT22;11507;44.858;10.374;2024-01-10T01:33:09;0.40;99.90
22680;DHT22;11507;44.858;10.374;2024-01-10T01:35:35;0.30;99.90
22680;DHT22;11507;44.858;10.374;2024-01-10T01:38:01;0.30;99.90
22680;DHT22;11507;44.858;10.374;2024-01-10T01:40:27;0.30;99.90
22680;DHT22;11507;44.858;10.374;2024-01-10T01:42:53;0.30;99.90
22680;DHT22;11507;44.858;10.374;2024-01-10T01:45:19;0.30;99.90
22680;DHT22;11507;44.858;10.374;2024-01-10T01:47:46;0.40;99.90
22680;DHT22;11507;44.858;10.374;2024-01-10T01:50:12;0.30;99.90
22680;DHT22;11507;44.858;10.374;2024-01-10T01:52:38;0.30;99.90
22680;DHT22;11507;44.858;10.374;2024-01-10T01:55:06;0.30;99.90
22680;DHT22;11507;44.858;10.374;2024-01-10T01:57:33;0.30;99.90
22680;DHT22;11507;44.858;10.374;2024-01-10T02:00:00;0.40;99.90
22680;DHT22;11507;44.858;10.374;2024-01-10T02:02:27;0.50;99.90
22680;DHT22;11507;44.858;10.374;2024-01-10T02:04:55;0.50;99.90
22680;DHT22;11507;44.858;10.374;2024-01-10T02:07:21;0.50;99.90
22680;DHT22;11507;44.858;10.374;2024-01-10T02:09:47;0.40;99.90
22680;DHT22;11507;44.858;10.374;2024-01-10T02:12:14;0.40;99.90
22680;DHT22;11507;44.858;10.374;2024-01-10T02:14:40;0.30;99.90
22680;DHT22;11507;44.858;10.374;2024-01-10T02:17:06;0.30;99.90
22680;DHT22;11507;44.858;10.374;2024-01-10T02:19:33;0.20;99.90
22680;DHT22;11507;44.858;10.374;2024-01-10T02:22:00;0.20;99.90
22680;DHT22;11507;44.858;10.374;2024-01-10T02:24:28;0.10;99.90
22680;DHT22;11507;44.858;10.374;2024-01-10T02:26:55;0.10;99.90
22680;DHT22;11507;44.858;10.374;2024-01-10T02:29:21;0.10;99.90
22680;DHT22;11507;44.858;10.374;2024-01-10T02:31:49;0.00;99.90
22680;DHT22;11507;44.858;10.374;2024-01-10T02:34:16;-0.10;99.90
22680;DHT22;11507;44.858;10.374;2024-01-10T02:36:42;0.00;99.90
22680;DHT22;11507;44.858;10.374;2024-01-10T02:39:08;0.00;99.90
22680;DHT22;11507;44.858;10.374;2024-01-10T02:41:34;0.00;99.90
22680;DHT22;11507;44.858;10.374;2024-01-10T02:44:00;0.00;99.90
22680;DHT22;11507;44.858;10.374;2024-01-10T02:46:27;-0.10;99.90
22680;DHT22;11507;44.858;10.374;2024-01-10T02:48:55;-0.10;99.90
22680;DHT22;11507;44.858;10.374;2024-01-10T02:51:22;-0.20;99.90
22680;DHT22;11507;44.858;10.374;2024-01-10T02:53:48;-0.20;99.90
22680;DHT22;11507;44.858;10.374;2024-01-10T02:56:14;-0.20;99.90
22680;DHT22;11507;44.858;10.374;2024-01-10T02:58:40;-0.20;99.90
22680;DHT22;11507;44.858;10.374;2024-01-10T03:01:07;-0.30;99.90
22680;DHT22;11507;44.858;10.374;2024-01-10T03:03:35;-0.30;99.90
22680;DHT22;11507;44.858;10.374;2024-01-10T03:06:01;-0.40;99.90
22680;DHT22;11507;44.858;10.374;2024-01-10T03:08:27;-0.40;99.90
22680;DHT22;11507;44.858;10.374;2024-01-10T03:10:54;-0.50;99.90
22680;DHT22;11507;44.858;10.374;2024-01-10T03:13:20;-0.50;99.90
22680;DHT22;11507;44.858;10.374;2024-01-10T03:15:46;-0.50;99.90
22680;DHT22;11507;44.858;10.374;2024-01-10T03:18:12;-0.60;99.90
22680;DHT22;11507;44.858;10.374;2024-01-10T03:20:38;-0.60;99.90
22680;DHT22;11507;44.858;10.374;2024-01-10T03:23:05;-0.60;99.90
22680;DHT22;11507;44.858;10.374;2024-01-10T03:25:31;-0.60;99.90
22680;DHT22;11507;44.858;10.374;2024-01-10T03:27:57;-0.60;99.90
22680;DHT22;11507;44.858;10.374;2024-01-10T03:30:23;-0.60;99.90
22680;DHT22;11507;44.858;10.374;2024-01-10T03:32:50;-0.60;99.90
22680;DHT22;11507;44.858;10.374;2024-01-10T03:35:17;-0.60;99.90
22680;DHT22;11507;44.858;10.374;2024-01-10T03:37:44;-0.70;99.90
22680;DHT22;11507;44.858;10.374;2024-01-10T03:40:10;-0.70;99.90
22680;DHT22;11507;44.858;10.374;2024-01-10T03:42:37;-0.70;99.90
22680;DHT22;11507;44.858;10.374;2024-01-10T03:45:04;-0.70;99.90
22680;DHT22;11507;44.858;10.374;2024-01-10T03:47:31;-0.70;99.90
22680;DHT22;11507;44.858;10.374;2024-01-10T03:49:57;-0.70;99.90
22680;DHT22;11507;44.858;10.374;2024-01-10T03:52:23;-0.70;99.90
22680;DHT22;11507;44.858;10.374;2024-01-10T03:54:49;-0.80;99.90
22680;DHT22;11507;44.858;10.374;2024-01-10T03:57:16;-0.80;99.90
22680;DHT22;11507;44.858;10.374;2024-01-10T03:59:42;-0.80;99.90
22680;DHT22;11507;44.858;10.374;2024-01-10T04:02:08;-0.80;99.90
22680;DHT22;11507;44.858;10.374;2024-01-10T04:04:37;-0.80;99.90
22680;DHT22;11507;44.858;10.374;2024-01-10T04:07:04;-0.80;99.90
22680;DHT22;11507;44.858;10.374;2024-01-10T04:09:30;-0.90;99.90
22680;DHT22;11507;44.858;10.374;2024-01-10T04:11:57;-0.90;99.90
22680;DHT22;11507;44.858;10.374;2024-01-10T04:14:23;-0.90;99.90
22680;DHT22;11507;44.858;10.374;2024-01-10T04:16:51;-0.90;99.90
22680;DHT22;11507;44.858;10.374;2024-01-10T04:19:18;-1.00;99.90
22680;DHT22;11507;44.858;10.374;2024-01-10T04:21:44;-1.00;99.90
22680;DHT22;11507;44.858;10.374;2024-01-10T04:24:10;-1.10;99.90
22680;DHT22;11507;44.858;10.374;2024-01-10T04:26:36;-1.10;99.90
22680;DHT22;11507;44.858;10.374;2024-01-10T04:29:03;-1.10;99.90
22680;DHT22;11507;44.858;10.374;2024-01-10T04:31:29;-1.10;99.90
22680;DHT22;11507;44.858;10.374;2024-01-10T04:33:55;-1.10;99.90
22680;DHT22;11507;44.858;10.374;2024-01-10T04:36:21;-1.20;99.90
22680;DHT22;11507;44.858;10.374;2024-01-10T04:38:48;-1.20;99.90
22680;DHT22;11507;44.858;10.374;2024-01-10T04:41:14;-1.20;99.90
22680;DHT22;11507;44.858;10.374;2024-01-10T04:43:40;-1.20;99.90
22680;DHT22;11507;44.858;10.374;2024-01-10T04:46:06;-1.20;99.90
22680;DHT22;11507;44.858;10.374;2024-01-10T04:48:34;-1.20;99.90
22680;DHT22;11507;44.858;10.374;2024-01-10T04:51:00;-1.20;99.90
22680;DHT22;11507;44.858;10.374;2024-01-10T04:53:26;-1.20;99.90
22680;DHT22;11507;44.858;10.374;2024-01-10T04:55:52;-1.20;99.90
22680;DHT22;11507;44.858;10.374;2024-01-10T04:58:18;-1.30;99.90
22680;DHT22;11507;44.858;10.374;2024-01-10T05:00:44;-1.30;99.90
22680;DHT22;11507;44.858;10.374;2024-01-10T05:03:11;-1.30;99.90
22680;DHT22;11507;44.858;10.374;2024-01-10T05:05:37;-1.30;99.90
22680;DHT22;11507;44.858;10.374;2024-01-10T05:08:04;-1.40;99.90
22680;DHT22;11507;44.858;10.374;2024-01-10T05:10:30;-1.30;99.90
22680;DHT22;11507;44.858;10.374;2024-01-10T05:12:56;-1.30;99.90
22680;DHT22;11507;44.858;10.374;2024-01-10T05:15:23;-1.30;99.90
22680;DHT22;11507;44.858;10.374;2024-01-10T05:17:49;-1.40;99.90
22680;DHT22;11507;44.858;10.374;2024-01-10T05:20:15;-1.40;99.90
22680;DHT22;11507;44.858;10.374;2024-01-10T05:22:42;-1.30;99.90
22680;DHT22;11507;44.858;10.374;2024-01-10T05:25:08;-1.40;99.90
22680;DHT22;11507;44.858;10.374;2024-01-10T05:27:35;-1.40;99.90
22680;DHT22;11507;44.858;10.374;2024-01-10T05:30:01;-1.40;99.90
22680;DHT22;11507;44.858;10.374;2024-01-10T05:32:27;-1.30;99.90
22680;DHT22;11507;44.858;10.374;2024-01-10T05:34:56;-1.20;99.90
22680;DHT22;11507;44.858;10.374;2024-01-10T05:37:22;-1.20;99.90
22680;DHT22;11507;44.858;10.374;2024-01-10T05:39:49;-1.20;99.90
22680;DHT22;11507;44.858;10.374;2024-01-10T05:42:15;-1.20;99.90
22680;DHT22;11507;44.858;10.374;2024-01-10T05:44:41;-1.20;99.90
22680;DHT22;11507;44.858;10.374;2024-01-10T05:47:07;-1.20;99.90
22680;DHT22;11507;44.858;10.374;2024-01-10T05:49:34;-1.10;99.90
22680;DHT22;11507;44.858;10.374;2024-01-10T05:52:00;-1.10;99.90
22680;DHT22;11507;44.858;10.374;2024-01-10T05:54:26;-1.20;99.90
22680;DHT22;11507;44.858;10.374;2024-01-10T05:56:53;-1.20;99.90
22680;DHT22;11507;44.858;10.374;2024-01-10T05:59:19;-1.20;99.90
22680;DHT22;11507;44.858;10.374;2024-01-10T06:01:46;-1.30;99.90
22680;DHT22;11507;44.858;10.374;2024-01-10T06:04:13;-1.30;99.90
22680;DHT22;11507;44.858;10.374;2024-01-10T06:06:39;-1.30;99.90
22680;DHT22;11507;44.858;10.374;2024-01-10T06:09:05;-1.30;99.90
22680;DHT22;11507;44.858;10.374;2024-01-10T06:11:32;-1.30;99.90
22680;DHT22;11507;44.858;10.374;2024-01-10T06:13:58;-1.20;99.90
22680;DHT22;11507;44.858;10.374;2024-01-10T06:16:24;-1.20;99.90
22680;DHT22;11507;44.858;10.374;2024-01-10T06:18:50;-1.20;99.90
22680;DHT22;11507;44.858;10.374;2024-01-10T06:21:16;-1.20;99.90
22680;DHT22;11507;44.858;10.374;2024-01-10T06:23:44;-1.20;99.90
22680;DHT22;11507;44.858;10.374;2024-01-10T06:26:10;-1.20;99.90
22680;DHT22;11507;44.858;10.374;2024-01-10T06:28:36;-1.30;99.90
22680;DHT22;11507;44.858;10.374;2024-01-10T06:31:03;-1.30;99.90
22680;DHT22;11507;44.858;10.374;2024-01-10T06:33:29;-1.30;99.90
22680;DHT22;11507;44.858;10.374;2024-01-10T06:35:55;-1.30;99.90
22680;DHT22;11507;44.858;10.374;2024-01-10T06:38:22;-1.30;99.90
22680;DHT22;11507;44.858;10.374;2024-01-10T06:40:49;-1.30;99.90
22680;DHT22;11507;44.858;10.374;2024-01-10T06:43:16;-1.20;99.90
22680;DHT22;11507;44.858;10.374;2024-01-10T06:45:42;-1.20;99.90
22680;DHT22;11507;44.858;10.374;2024-01-10T06:48:09;-1.20;99.90
22680;DHT22;11507;44.858;10.374;2024-01-10T06:50:36;-1.20;99.90
22680;DHT22;11507;44.858;10.374;2024-01-10T06:53:02;-1.30;99.90
22680;DHT22;11507;44.858;10.374;2024-01-10T06:55:29;-1.30;99.90
22680;DHT22;11507;44.858;10.374;2024-01-10T06:57:55;-1.30;99.90
22680;DHT22;11507;44.858;10.374;2024-01-10T07:00:22;-1.30;99.90
22680;DHT22;11507;44.858;10.374;2024-01-10T07:02:49;-1.30;99.90
22680;DHT22;11507;44.858;10.374;2024-01-10T07:05:15;-1.30;99.90
22680;DHT22;11507;44.858;10.374;2024-01-10T07:07:42;-1.40;99.90
22680;DHT22;11507;44.858;10.374;2024-01-10T07:10:09;-1.40;99.90
22680;DHT22;11507;44.858;10.374;2024-01-10T07:12:36;-1.40;99.90
22680;DHT22;11507;44.858;10.374;2024-01-10T07:15:03;-1.40;99.90
22680;DHT22;11507;44.858;10.374;2024-01-10T07:17:29;-1.40;99.90
22680;DHT22;11507;44.858;10.374;2024-01-10T07:19:56;-1.40;99.90
22680;DHT22;11507;44.858;10.374;2024-01-10T07:22:25;-1.40;99.90
22680;DHT22;11507;44.858;10.374;2024-01-10T07:24:52;-1.30;99.90
22680;DHT22;11507;44.858;10.374;2024-01-10T07:27:18;-1.30;99.90
22680;DHT22;11507;44.858;10.374;2024-01-10T07:29:45;-1.20;99.90
22680;DHT22;11507;44.858;10.374;2024-01-10T07:32:11;-1.10;99.90
22680;DHT22;11507;44.858;10.374;2024-01-10T07:34:39;-1.10;99.90
22680;DHT22;11507;44.858;10.374;2024-01-10T07:37:05;-1.00;99.90
22680;DHT22;11507;44.858;10.374;2024-01-10T07:39:31;-1.00;99.90
22680;DHT22;11507;44.858;10.374;2024-01-10T07:41:58;-0.90;99.90
22680;DHT22;11507;44.858;10.374;2024-01-10T07:44:24;-0.80;99.90
22680;DHT22;11507;44.858;10.374;2024-01-10T07:46:50;-0.70;99.90
22680;DHT22;11507;44.858;10.374;2024-01-10T07:49:20;-0.70;99.90
22680;DHT22;11507;44.858;10.374;2024-01-10T07:51:47;-0.60;99.90
22680;DHT22;11507;44.858;10.374;2024-01-10T07:54:13;-0.50;99.90
22680;DHT22;11507;44.858;10.374;2024-01-10T07:56:39;-0.40;99.90
22680;DHT22;11507;44.858;10.374;2024-01-10T07:59:06;-0.40;99.90
22680;DHT22;11507;44.858;10.374;2024-01-10T08:01:32;-0.20;99.90
22680;DHT22;11507;44.858;10.374;2024-01-10T08:04:00;-0.10;99.90
22680;DHT22;11507;44.858;10.374;2024-01-10T08:06:26;0.00;99.90
22680;DHT22;11507;44.858;10.374;2024-01-10T08:08:52;0.00;99.90
22680;DHT22;11507;44.858;10.374;2024-01-10T08:11:18;0.20;99.90
22680;DHT22;11507;44.858;10.374;2024-01-10T08:13:44;0.30;99.90
22680;DHT22;11507;44.858;10.374;2024-01-10T08:16:10;0.30;99.90
22680;DHT22;11507;44.858;10.374;2024-01-10T08:18:36;0.40;99.90
22680;DHT22;11507;44.858;10.374;2024-01-10T08:21:03;0.50;99.90
22680;DHT22;11507;44.858;10.374;2024-01-10T08:23:30;0.60;99.90
22680;DHT22;11507;44.858;10.374;2024-01-10T08:25:56;0.70;99.90
22680;DHT22;11507;44.858;10.374;2024-01-10T08:28:22;0.90;99.90
22680;DHT22;11507;44.858;10.374;2024-01-10T08:30:49;1.00;99.90
22680;DHT22;11507;44.858;10.374;2024-01-10T08:33:15;1.10;99.90
22680;DHT22;11507;44.858;10.374;2024-01-10T08:35:41;1.30;99.90
22680;DHT22;11507;44.858;10.374;2024-01-10T08:38:08;1.40;99.90
22680;DHT22;11507;44.858;10.374;2024-01-10T08:40:35;1.50;99.90
22680;DHT22;11507;44.858;10.374;2024-01-10T08:43:01;1.60;99.90
22680;DHT22;11507;44.858;10.374;2024-01-10T08:45:27;1.70;99.90
22680;DHT22;11507;44.858;10.374;2024-01-10T08:47:53;1.80;99.90
22680;DHT22;11507;44.858;10.374;2024-01-10T08:50:21;1.80;99.90
22680;DHT22;11507;44.858;10.374;2024-01-10T08:52:48;1.90;99.90
22680;DHT22;11507;44.858;10.374;2024-01-10T08:55:14;2.00;99.90
22680;DHT22;11507;44.858;10.374;2024-01-10T08:57:40;2.00;99.90
22680;DHT22;11507;44.858;10.374;2024-01-10T09:00:07;2.00;99.90
22680;DHT22;11507;44.858;10.374;2024-01-10T09:02:33;2.10;99.90
22680;DHT22;11507;44.858;10.374;2024-01-10T09:05:02;2.20;99.90
22680;DHT22;11507;44.858;10.374;2024-01-10T09:07:29;2.30;99.90
22680;DHT22;11507;44.858;10.374;2024-01-10T09:09:56;2.40;99.90
22680;DHT22;11507;44.858;10.374;2024-01-10T09:12:23;2.40;99.90
22680;DHT22;11507;44.858;10.374;2024-01-10T09:14:49;2.50;99.90
22680;DHT22;11507;44.858;10.374;2024-01-10T09:17:16;2.60;99.90
22680;DHT22;11507;44.858;10.374;2024-01-10T09:19:42;2.70;99.90
22680;DHT22;11507;44.858;10.374;2024-01-10T09:22:08;2.80;99.90
22680;DHT22;11507;44.858;10.374;2024-01-10T09:24:34;3.00;99.90
22680;DHT22;11507;44.858;10.374;2024-01-10T09:27:01;3.30;99.90
22680;DHT22;11507;44.858;10.374;2024-01-10T09:29:27;3.50;99.90
22680;DHT22;11507;44.858;10.374;2024-01-10T09:31:53;3.70;99.90
22680;DHT22;11507;44.858;10.374;2024-01-10T09:34:20;4.10;99.90
22680;DHT22;11507;44.858;10.374;2024-01-10T09:36:46;4.40;99.90
22680;DHT22;11507;44.858;10.374;2024-01-10T09:39:13;4.60;99.90
22680;DHT22;11507;44.858;10.374;2024-01-10T09:41:49;4.90;99.90
22680;DHT22;11507;44.858;10.374;2024-01-10T09:44:20;5.20;99.90
22680;DHT22;11507;44.858;10.374;2024-01-10T09:46:51;5.40;99.90
22680;DHT22;11507;44.858;10.374;2024-01-10T09:49:18;5.70;99.90
22680;DHT22;11507;44.858;10.374;2024-01-10T09:51:48;5.80;99.90
22680;DHT22;11507;44.858;10.374;2024-01-10T09:54:15;6.00;99.90
22680;DHT22;11507;44.858;10.374;2024-01-10T09:56:42;6.20;99.90
22680;DHT22;11507;44.858;10.374;2024-01-10T09:59:10;6.30;99.90
22680;DHT22;11507;44.858;10.374;2024-01-10T10:01:37;6.40;99.90
22680;DHT22;11507;44.858;10.374;2024-01-10T10:04:05;6.50;99.90
22680;DHT22;11507;44.858;10.374;2024-01-10T10:06:33;6.60;99.90
22680;DHT22;11507;44.858;10.374;2024-01-10T10:09:00;6.70;99.90
22680;DHT22;11507;44.858;10.374;2024-01-10T10:11:26;6.70;99.90
22680;DHT22;11507;44.858;10.374;2024-01-10T10:13:53;6.80;99.90
22680;DHT22;11507;44.858;10.374;2024-01-10T10:16:25;7.00;99.90
22680;DHT22;11507;44.858;10.374;2024-01-10T10:18:54;7.10;99.90
22680;DHT22;11507;44.858;10.374;2024-01-10T10:21:25;7.20;99.90
22680;DHT22;11507;44.858;10.374;2024-01-10T10:24:01;7.20;99.90
22680;DHT22;11507;44.858;10.374;2024-01-10T10:26:32;7.20;99.90
22680;DHT22;11507;44.858;10.374;2024-01-10T10:28:59;7.40;99.90
22680;DHT22;11507;44.858;10.374;2024-01-10T10:31:26;7.60;99.90
22680;DHT22;11507;44.858;10.374;2024-01-10T10:33:52;7.80;99.90
22680;DHT22;11507;44.858;10.374;2024-01-10T10:36:19;8.10;99.90
22680;DHT22;11507;44.858;10.374;2024-01-10T10:38:47;8.10;99.90
22680;DHT22;11507;44.858;10.374;2024-01-10T10:41:18;8.10;99.90
22680;DHT22;11507;44.858;10.374;2024-01-10T10:43:45;8.10;99.90
22680;DHT22;11507;44.858;10.374;2024-01-10T10:46:12;8.00;99.90
22680;DHT22;11507;44.858;10.374;2024-01-10T10:48:39;7.90;99.90
22680;DHT22;11507;44.858;10.374;2024-01-10T10:51:15;7.70;99.90
22680;DHT22;11507;44.858;10.374;2024-01-10T10:53:44;7.70;99.90
22680;DHT22;11507;44.858;10.374;2024-01-10T10:56:12;8.00;99.90
22680;DHT22;11507;44.858;10.374;2024-01-10T10:58:40;8.00;99.90
22680;DHT22;11507;44.858;10.374;2024-01-10T11:01:08;8.10;99.90
22680;DHT22;11507;44.858;10.374;2024-01-10T11:03:39;8.20;99.90
22680;DHT22;11507;44.858;10.374;2024-01-10T11:06:13;8.40;99.90
22680;DHT22;11507;44.858;10.374;2024-01-10T11:08:47;8.70;99.90
22680;DHT22;11507;44.858;10.374;2024-01-10T11:14:21;9.30;99.90
22680;DHT22;11507;44.858;10.374;2024-01-10T11:17:06;9.50;99.90
22680;DHT22;11507;44.858;10.374;2024-01-10T11:20:10;9.90;99.90
22680;DHT22;11507;44.858;10.374;2024-01-10T11:23:02;10.40;99.90
22680;DHT22;11507;44.858;10.374;2024-01-10T11:25:31;11.10;99.90
22680;DHT22;11507;44.858;10.374;2024-01-10T11:28:02;11.40;97.50
22680;DHT22;11507;44.858;10.374;2024-01-10T11:30:36;11.80;99.20
22680;DHT22;11507;44.858;10.374;2024-01-10T11:33:32;12.30;98.00
22680;DHT22;11507;44.858;10.374;2024-01-10T11:36:19;12.50;94.60
22680;DHT22;11507;44.858;10.374;2024-01-10T11:41:23;12.80;92.70
22680;DHT22;11507;44.858;10.374;2024-01-10T11:46:35;12.70;89.50
22680;DHT22;11507;44.858;10.374;2024-01-10T11:49:01;12.60;90.50
22680;DHT22;11507;44.858;10.374;2024-01-10T11:51:29;12.80;87.20
22680;DHT22;11507;44.858;10.374;2024-01-10T11:53:56;12.90;87.10
22680;DHT22;11507;44.858;10.374;2024-01-10T11:56:22;12.90;84.20
22680;DHT22;11507;44.858;10.374;2024-01-10T11:59:02;13.00;89.10
22680;DHT22;11507;44.858;10.374;2024-01-10T12:01:32;13.20;90.20
22680;DHT22;11507;44.858;10.374;2024-01-10T12:04:03;13.30;87.40
22680;DHT22;11507;44.858;10.374;2024-01-10T12:06:36;13.20;81.70
22680;DHT22;11507;44.858;10.374;2024-01-10T12:09:03;12.90;84.60
22680;DHT22;11507;44.858;10.374;2024-01-10T12:11:39;12.90;85.20
22680;DHT22;11507;44.858;10.374;2024-01-10T12:14:06;13.00;87.50
22680;DHT22;11507;44.858;10.374;2024-01-10T12:16:33;13.20;85.10
22680;DHT22;11507;44.858;10.374;2024-01-10T12:18:59;13.40;83.80
22680;DHT22;11507;44.858;10.374;2024-01-10T12:21:25;13.10;82.70
22680;DHT22;11507;44.858;10.374;2024-01-10T12:23:51;13.20;85.00
22680;DHT22;11507;44.858;10.374;2024-01-10T12:26:18;13.30;85.60
22680;DHT22;11507;44.858;10.374;2024-01-10T12:28:55;13.30;79.60
22680;DHT22;11507;44.858;10.374;2024-01-10T12:31:22;13.40;80.00
22680;DHT22;11507;44.858;10.374;2024-01-10T12:33:49;12.70;80.10
22680;DHT22;11507;44.858;10.374;2024-01-10T12:36:17;12.90;83.70
22680;DHT22;11507;44.858;10.374;2024-01-10T12:38:44;12.90;82.70
22680;DHT22;11507;44.858;10.374;2024-01-10T12:41:11;13.10;81.50
22680;DHT22;11507;44.858;10.374;2024-01-10T12:43:38;13.20;84.00
22680;DHT22;11507;44.858;10.374;2024-01-10T12:46:08;13.40;84.80
22680;DHT22;11507;44.858;10.374;2024-01-10T12:48:37;13.80;85.80
22680;DHT22;11507;44.858;10.374;2024-01-10T12:51:04;14.20;83.40
22680;DHT22;11507;44.858;10.374;2024-01-10T12:53:35;14.50;79.50
22680;DHT22;11507;44.858;10.374;2024-01-10T12:56:03;14.70;78.30
22680;DHT22;11507;44.858;10.374;2024-01-10T12:58:31;14.70;79.30
22680;DHT22;11507;44.858;10.374;2024-01-10T13:00:57;15.00;78.50
22680;DHT22;11507;44.858;10.374;2024-01-10T13:03:24;15.20;77.30
22680;DHT22;11507;44.858;10.374;2024-01-10T13:05:50;15.00;77.30
22680;DHT22;11507;44.858;10.374;2024-01-10T13:08:18;14.80;78.00
22680;DHT22;11507;44.858;10.374;2024-01-10T13:10:48;14.90;79.80
22680;DHT22;11507;44.858;10.374;2024-01-10T13:13:15;14.90;80.00
22680;DHT22;11507;44.858;10.374;2024-01-10T13:15:43;15.30;78.40
22680;DHT22;11507;44.858;10.374;2024-01-10T13:18:11;15.60;76.20
22680;DHT22;11507;44.858;10.374;2024-01-10T13:20:38;15.50;72.90
22680;DHT22;11507;44.858;10.374;2024-01-10T13:23:05;15.90;74.70
22680;DHT22;11507;44.858;10.374;2024-01-10T13:25:31;16.10;74.70
22680;DHT22;11507;44.858;10.374;2024-01-10T13:27:57;16.50;72.20
22680;DHT22;11507;44.858;10.374;2024-01-10T13:30:23;16.70;70.90
22680;DHT22;11507;44.858;10.374;2024-01-10T13:32:50;16.90;72.00
22680;DHT22;11507;44.858;10.374;2024-01-10T13:35:16;17.50;70.90
22680;DHT22;11507;44.858;10.374;2024-01-10T13:37:43;18.30;69.50
22680;DHT22;11507;44.858;10.374;2024-01-10T13:40:10;19.10;67.20
22680;DHT22;11507;44.858;10.374;2024-01-10T13:42:41;19.80;62.20
22680;DHT22;11507;44.858;10.374;2024-01-10T13:45:09;19.90;61.80
22680;DHT22;11507;44.858;10.374;2024-01-10T13:47:39;20.50;58.60
22680;DHT22;11507;44.858;10.374;2024-01-10T13:50:06;21.00;58.10
22680;DHT22;11507;44.858;10.374;2024-01-10T13:52:35;21.50;56.10
22680;DHT22;11507;44.858;10.374;2024-01-10T13:55:02;22.10;54.30
22680;DHT22;11507;44.858;10.374;2024-01-10T13:57:31;22.80;52.70
22680;DHT22;11507;44.858;10.374;2024-01-10T14:00:01;23.10;51.40
22680;DHT22;11507;44.858;10.374;2024-01-10T14:02:37;23.30;48.70
22680;DHT22;11507;44.858;10.374;2024-01-10T14:05:04;22.70;47.00
22680;DHT22;11507;44.858;10.374;2024-01-10T14:07:32;22.40;46.20
22680;DHT22;11507;44.858;10.374;2024-01-10T14:09:59;22.00;49.10
22680;DHT22;11507;44.858;10.374;2024-01-10T14:12:27;21.10;47.70
22680;DHT22;11507;44.858;10.374;2024-01-10T14:14:54;19.50;47.80
22680;DHT22;11507;44.858;10.374;2024-01-10T14:17:21;18.20;50.40
22680;DHT22;11507;44.858;10.374;2024-01-10T14:19:48;16.60;52.30
22680;DHT22;11507;44.858;10.374;2024-01-10T14:22:17;15.50;55.10
22680;DHT22;11507;44.858;10.374;2024-01-10T14:24:44;14.40;57.30
22680;DHT22;11507;44.858;10.374;2024-01-10T14:27:10;13.70;59.20
22680;DHT22;11507;44.858;10.374;2024-01-10T14:29:37;13.10;60.50
22680;DHT22;11507;44.858;10.374;2024-01-10T14:32:03;12.50;62.80
22680;DHT22;11507;44.858;10.374;2024-01-10T14:34:29;11.90;64.30
22680;DHT22;11507;44.858;10.374;2024-01-10T14:36:55;11.30;65.80
22680;DHT22;11507;44.858;10.374;2024-01-10T14:39:22;10.80;67.20
22680;DHT22;11507;44.858;10.374;2024-01-10T14:41:49;10.60;69.50
22680;DHT22;11507;44.858;10.374;2024-01-10T14:44:15;10.20;71.20
22680;DHT22;11507;44.858;10.374;2024-01-10T14:46:42;9.90;72.80
22680;DHT22;11507;44.858;10.374;2024-01-10T14:49:09;9.70;75.80
22680;DHT22;11507;44.858;10.374;2024-01-10T14:51:35;9.40;77.10
22680;DHT22;11507;44.858;10.374;2024-01-10T14:54:01;9.20;77.90
22680;DHT22;11507;44.858;10.374;2024-01-10T14:56:29;8.90;78.60
22680;DHT22;11507;44.858;10.374;2024-01-10T14:58:55;8.80;80.40
22680;DHT22;11507;44.858;10.374;2024-01-10T15:01:22;8.50;82.30
22680;DHT22;11507;44.858;10.374;2024-01-10T15:03:48;8.30;82.80
22680;DHT22;11507;44.858;10.374;2024-01-10T15:06:14;8.10;83.70
22680;DHT22;11507;44.858;10.374;2024-01-10T15:08:41;8.00;86.50
22680;DHT22;11507;44.858;10.374;2024-01-10T15:11:07;7.80;86.70
22680;DHT22;11507;44.858;10.374;2024-01-10T15:13:38;7.60;87.10
22680;DHT22;11507;44.858;10.374;2024-01-10T15:16:07;7.50;87.80
22680;DHT22;11507;44.858;10.374;2024-01-10T15:18:34;7.30;88.40
22680;DHT22;11507;44.858;10.374;2024-01-10T15:21:00;7.10;90.40
22680;DHT22;11507;44.858;10.374;2024-01-10T15:23:26;7.00;91.20
22680;DHT22;11507;44.858;10.374;2024-01-10T15:25:52;6.80;92.20
22680;DHT22;11507;44.858;10.374;2024-01-10T15:28:18;6.60;93.00
22680;DHT22;11507;44.858;10.374;2024-01-10T15:30:44;6.50;93.40